sensor_id;sensor_type;location;lat;lon;timestamp;temperature;humidity
7341;DHT22;6870;50.944;6.932;2022-07-29T00:01:16;25.90;21.40
7341;DHT22;6870;50.944;6.932;2022-07-29T00:03:45;25.90;21.40
7341;DHT22;6870;50.944;6.932;2022-07-29T00:06:14;26.00;21.50
7341;DHT22;6870;50.944;6.932;2022-07-29T00:08:42;25.70;21.30
7341;DHT22;6870;50.944;6.932;2022-07-29T00:11:12;25.70;21.40
7341;DHT22;6870;50.944;6.932;2022-07-29T00:13:40;25.80;21.60
7341;DHT22;6870;50.944;6.932;2022-07-29T00:16:13;25.80;21.50
7341;DHT22;6870;50.944;6.932;2022-07-29T00:18:41;25.60;21.50
7341;DHT22;6870;50.944;6.932;2022-07-29T00:21:09;25.70;21.60
7341;DHT22;6870;50.944;6.932;2022-07-29T00:23:37;25.90;21.90
7341;DHT22;6870;50.944;6.932;2022-07-29T00:26:05;26.10;22.00
7341;DHT22;6870;50.944;6.932;2022-07-29T00:28:35;25.70;21.80
7341;DHT22;6870;50.944;6.932;2022-07-29T00:31:03;25.80;21.90
7341;DHT22;6870;50.944;6.932;2022-07-29T00:33:32;25.70;21.80
7341;DHT22;6870;50.944;6.932;2022-07-29T00:36:00;25.70;22.00
7341;DHT22;6870;50.944;6.932;2022-07-29T00:38:27;25.80;22.00
7341;DHT22;6870;50.944;6.932;2022-07-29T00:40:55;26.10;22.20
7341;DHT22;6870;50.944;6.932;2022-07-29T00:43:23;25.80;22.10
7341;DHT22;6870;50.944;6.932;2022-07-29T00:45:53;25.70;22.00
7341;DHT22;6870;50.944;6.932;2022-07-29T00:48:21;25.80;22.10
7341;DHT22;6870;50.944;6.932;2022-07-29T00:50:49;25.70;22.10
7341;DHT22;6870;50.944;6.932;2022-07-29T00:53:18;25.70;22.10
7341;DHT22;6870;50.944;6.932;2022-07-29T00:55:47;25.80;22.30
7341;DHT22;6870;50.944;6.932;2022-07-29T00:58:18;26.00;22.50
7341;DHT22;6870;50.944;6.932;2022-07-29T01:00:46;25.70;22.40
7341;DHT22;6870;50.944;6.932;2022-07-29T01:03:15;25.80;22.40
7341;DHT22;6870;50.944;6.932;2022-07-29T01:05:45;25.70;22.50
7341;DHT22;6870;50.944;6.932;2022-07-29T01:08:17;25.70;22.60
7341;DHT22;6870;50.944;6.932;2022-07-29T01:10:46;25.60;22.50
7341;DHT22;6870;50.944;6.932;2022-07-29T01:13:16;25.80;22.60
7341;DHT22;6870;50.944;6.932;2022-07-29T01:15:47;25.60;22.50
7341;DHT22;6870;50.944;6.932;2022-07-29T01:18:23;25.80;22.80
7341;DHT22;6870;50.944;6.932;2022-07-29T01:21:32;25.70;22.70
7341;DHT22;6870;50.944;6.932;2022-07-29T01:24:18;25.70;22.80
7341;DHT22;6870;50.944;6.932;2022-07-29T01:27:01;25.70;22.80
7341;DHT22;6870;50.944;6.932;2022-07-29T01:29:38;25.80;22.90
7341;DHT22;6870;50.944;6.932;2022-07-29T01:32:12;25.70;22.90
7341;DHT22;6870;50.944;6.932;2022-07-29T01:34:57;25.70;23.00
7341;DHT22;6870;50.944;6.932;2022-07-29T01:37:30;25.70;23.10
7341;DHT22;6870;50.944;6.932;2022-07-29T01:40:04;25.50;22.90
7341;DHT22;6870;50.944;6.932;2022-07-29T01:42:36;25.60;23.00
7341;DHT22;6870;50.944;6.932;2022-07-29T01:45:10;25.60;23.00
7341;DHT22;6870;50.944;6.932;2022-07-29T01:47:44;25.80;23.10
7341;DHT22;6870;50.944;6.932;2022-07-29T01:50:16;25.50;23.00
7341;DHT22;6870;50.944;6.932;2022-07-29T01:52:49;25.70;23.20
7341;DHT22;6870;50.944;6.932;2022-07-29T01:55:25;25.70;23.80
7341;DHT22;6870;50.944;6.932;2022-07-29T01:57:57;25.70;23.20
7341;DHT22;6870;50.944;6.932;2022-07-29T02:00:28;25.80;23.30
7341;DHT22;6870;50.944;6.932;2022-07-29T02:02:59;25.70;23.20
7341;DHT22;6870;50.944;6.932;2022-07-29T02:05:30;25.70;23.30
7341;DHT22;6870;50.944;6.932;2022-07-29T02:08:01;25.50;23.10
7341;DHT22;6870;50.944;6.932;2022-07-29T02:10:32;25.70;23.30
7341;DHT22;6870;50.944;6.932;2022-07-29T02:13:02;25.70;23.40
7341;DHT22;6870;50.944;6.932;2022-07-29T02:15:33;25.40;23.20
7341;DHT22;6870;50.944;6.932;2022-07-29T02:18:04;25.70;23.40
7341;DHT22;6870;50.944;6.932;2022-07-29T02:20:34;25.60;23.40
7341;DHT22;6870;50.944;6.932;2022-07-29T02:23:04;25.60;23.40
7341;DHT22;6870;50.944;6.932;2022-07-29T02:25:34;25.60;23.50
7341;DHT22;6870;50.944;6.932;2022-07-29T02:28:05;25.60;23.70
7341;DHT22;6870;50.944;6.932;2022-07-29T02:30:38;25.60;23.70
7341;DHT22;6870;50.944;6.932;2022-07-29T02:33:08;25.70;23.90
7341;DHT22;6870;50.944;6.932;2022-07-29T02:35:40;25.70;23.90
7341;DHT22;6870;50.944;6.932;2022-07-29T02:38:10;25.60;23.90
7341;DHT22;6870;50.944;6.932;2022-07-29T02:40:58;25.50;23.90
7341;DHT22;6870;50.944;6.932;2022-07-29T02:43:30;25.30;23.70
7341;DHT22;6870;50.944;6.932;2022-07-29T02:46:03;25.70;23.90
7341;DHT22;6870;50.944;6.932;2022-07-29T02:48:57;25.40;23.90
7341;DHT22;6870;50.944;6.932;2022-07-29T02:51:32;25.60;24.10
7341;DHT22;6870;50.944;6.932;2022-07-29T02:54:11;25.70;24.10
7341;DHT22;6870;50.944;6.932;2022-07-29T02:56:49;25.40;24.00
7341;DHT22;6870;50.944;6.932;2022-07-29T02:59:23;25.60;24.30
7341;DHT22;6870;50.944;6.932;2022-07-29T03:01:57;25.40;24.10
7341;DHT22;6870;50.944;6.932;2022-07-29T03:04:27;25.70;24.40
7341;DHT22;6870;50.944;6.932;2022-07-29T03:06:58;25.50;24.50
7341;DHT22;6870;50.944;6.932;2022-07-29T03:09:27;25.60;24.40
7341;DHT22;6870;50.944;6.932;2022-07-29T03:11:57;25.60;24.40
7341;DHT22;6870;50.944;6.932;2022-07-29T03:14:25;25.60;24.40
7341;DHT22;6870;50.944;6.932;2022-07-29T03:16:55;25.60;24.40
7341;DHT22;6870;50.944;6.932;2022-07-29T03:19:24;25.70;24.50
7341;DHT22;6870;50.944;6.932;2022-07-29T03:21:52;25.60;24.40
7341;DHT22;6870;50.944;6.932;2022-07-29T03:24:29;25.60;24.60
7341;DHT22;6870;50.944;6.932;2022-07-29T03:26:58;25.20;24.50
7341;DHT22;6870;50.944;6.932;2022-07-29T03:29:27;25.70;25.30
7341;DHT22;6870;50.944;6.932;2022-07-29T03:32:02;25.60;24.90
7341;DHT22;6870;50.944;6.932;2022-07-29T03:34:33;25.20;24.60
7341;DHT22;6870;50.944;6.932;2022-07-29T03:37:02;25.60;24.80
7341;DHT22;6870;50.944;6.932;2022-07-29T03:39:33;25.60;24.90
7341;DHT22;6870;50.944;6.932;2022-07-29T03:42:05;25.60;25.00
7341;DHT22;6870;50.944;6.932;2022-07-29T03:44:36;25.70;25.20
7341;DHT22;6870;50.944;6.932;2022-07-29T03:47:07;25.50;24.90
7341;DHT22;6870;50.944;6.932;2022-07-29T03:49:37;25.30;25.10
7341;DHT22;6870;50.944;6.932;2022-07-29T03:52:07;25.60;25.20
7341;DHT22;6870;50.944;6.932;2022-07-29T03:54:35;25.40;25.20
7341;DHT22;6870;50.944;6.932;2022-07-29T03:57:05;25.40;25.00
7341;DHT22;6870;50.944;6.932;2022-07-29T03:59:34;25.50;25.10
7341;DHT22;6870;50.944;6.932;2022-07-29T04:02:03;25.40;25.20
7341;DHT22;6870;50.944;6.932;2022-07-29T04:04:34;25.40;25.10
7341;DHT22;6870;50.944;6.932;2022-07-29T04:07:03;25.60;25.30
7341;DHT22;6870;50.944;6.932;2022-07-29T04:09:32;25.20;25.10
7341;DHT22;6870;50.944;6.932;2022-07-29T04:12:00;25.30;25.00
7341;DHT22;6870;50.944;6.932;2022-07-29T04:14:30;25.50;25.20
7341;DHT22;6870;50.944;6.932;2022-07-29T04:16:59;25.70;25.40
7341;DHT22;6870;50.944;6.932;2022-07-29T04:19:28;25.30;25.10
7341;DHT22;6870;50.944;6.932;2022-07-29T04:21:58;25.50;25.20
7341;DHT22;6870;50.944;6.932;2022-07-29T04:24:26;25.40;25.20
7341;DHT22;6870;50.944;6.932;2022-07-29T04:26:54;25.60;25.20
7341;DHT22;6870;50.944;6.932;2022-07-29T04:29:23;25.60;25.30
7341;DHT22;6870;50.944;6.932;2022-07-29T04:31:51;25.50;25.10
7341;DHT22;6870;50.944;6.932;2022-07-29T04:34:19;25.40;25.20
7341;DHT22;6870;50.944;6.932;2022-07-29T04:36:47;25.60;25.20
7341;DHT22;6870;50.944;6.932;2022-07-29T04:39:16;25.60;25.30
7341;DHT22;6870;50.944;6.932;2022-07-29T04:41:49;25.70;25.30
7341;DHT22;6870;50.944;6.932;2022-07-29T04:44:20;25.70;25.30
7341;DHT22;6870;50.944;6.932;2022-07-29T04:46:55;25.10;25.00
7341;DHT22;6870;50.944;6.932;2022-07-29T04:49:24;25.40;25.20
7341;DHT22;6870;50.944;6.932;2022-07-29T04:51:52;25.40;25.20
7341;DHT22;6870;50.944;6.932;2022-07-29T04:54:22;25.60;25.30
7341;DHT22;6870;50.944;6.932;2022-07-29T04:56:52;25.50;25.20
7341;DHT22;6870;50.944;6.932;2022-07-29T04:59:20;25.60;25.30
7341;DHT22;6870;50.944;6.932;2022-07-29T05:01:48;25.60;25.30
7341;DHT22;6870;50.944;6.932;2022-07-29T05:04:16;25.50;25.20
7341;DHT22;6870;50.944;6.932;2022-07-29T05:06:45;25.60;25.30
7341;DHT22;6870;50.944;6.932;2022-07-29T05:09:13;25.40;25.20
7341;DHT22;6870;50.944;6.932;2022-07-29T05:11:43;25.70;25.40
7341;DHT22;6870;50.944;6.932;2022-07-29T05:14:11;25.50;25.20
7341;DHT22;6870;50.944;6.932;2022-07-29T05:16:39;25.70;25.40
7341;DHT22;6870;50.944;6.932;2022-07-29T05:19:08;25.30;25.10
7341;DHT22;6870;50.944;6.932;2022-07-29T05:21:40;25.50;25.20
7341;DHT22;6870;50.944;6.932;2022-07-29T05:24:09;25.60;25.30
7341;DHT22;6870;50.944;6.932;2022-07-29T05:26:37;25.70;25.40
7341;DHT22;6870;50.944;6.932;2022-07-29T05:29:06;25.60;25.30
7341;DHT22;6870;50.944;6.932;2022-07-29T05:31:54;25.50;25.20
7341;DHT22;6870;50.944;6.932;2022-07-29T05:34:22;25.40;25.20
7341;DHT22;6870;50.944;6.932;2022-07-29T05:36:51;25.60;25.30
7341;DHT22;6870;50.944;6.932;2022-07-29T05:39:20;25.60;25.30
7341;DHT22;6870;50.944;6.932;2022-07-29T05:42:08;25.50;25.20
7341;DHT22;6870;50.944;6.932;2022-07-29T05:44:38;25.80;25.40
7341;DHT22;6870;50.944;6.932;2022-07-29T05:47:07;25.50;25.20
7341;DHT22;6870;50.944;6.932;2022-07-29T05:49:35;25.70;25.40
7341;DHT22;6870;50.944;6.932;2022-07-29T05:52:04;25.50;25.20
7341;DHT22;6870;50.944;6.932;2022-07-29T05:54:32;25.40;25.20
7341;DHT22;6870;50.944;6.932;2022-07-29T05:57:00;25.40;25.20
7341;DHT22;6870;50.944;6.932;2022-07-29T05:59:28;25.70;25.40
7341;DHT22;6870;50.944;6.932;2022-07-29T06:01:57;25.50;25.20
7341;DHT22;6870;50.944;6.932;2022-07-29T06:04:26;25.70;25.40
7341;DHT22;6870;50.944;6.932;2022-07-29T06:06:54;25.70;25.30
7341;DHT22;6870;50.944;6.932;2022-07-29T06:09:22;25.60;25.20
7341;DHT22;6870;50.944;6.932;2022-07-29T06:11:50;25.70;24.70
7341;DHT22;6870;50.944;6.932;2022-07-29T06:14:19;25.80;24.30
7341;DHT22;6870;50.944;6.932;2022-07-29T06:16:47;25.70;24.00
7341;DHT22;6870;50.944;6.932;2022-07-29T06:19:16;25.80;22.50
7341;DHT22;6870;50.944;6.932;2022-07-29T06:21:45;25.70;22.20
7341;DHT22;6870;50.944;6.932;2022-07-29T06:24:15;25.90;23.00
7341;DHT22;6870;50.944;6.932;2022-07-29T06:26:44;25.60;23.00
7341;DHT22;6870;50.944;6.932;2022-07-29T06:29:12;25.70;23.20
7341;DHT22;6870;50.944;6.932;2022-07-29T06:31:40;25.60;23.30
7341;DHT22;6870;50.944;6.932;2022-07-29T06:34:08;25.60;23.10
7341;DHT22;6870;50.944;6.932;2022-07-29T06:36:39;25.70;22.90
7341;DHT22;6870;50.944;6.932;2022-07-29T06:39:08;25.20;22.50
7341;DHT22;6870;50.944;6.932;2022-07-29T06:41:38;25.30;22.80
7341;DHT22;6870;50.944;6.932;2022-07-29T06:44:06;25.50;22.50
7341;DHT22;6870;50.944;6.932;2022-07-29T06:46:34;25.40;22.40
7341;DHT22;6870;50.944;6.932;2022-07-29T06:49:03;25.40;22.20
7341;DHT22;6870;50.944;6.932;2022-07-29T06:51:31;25.70;22.50
7341;DHT22;6870;50.944;6.932;2022-07-29T06:54:01;25.50;21.50
7341;DHT22;6870;50.944;6.932;2022-07-29T06:56:32;25.40;21.60
7341;DHT22;6870;50.944;6.932;2022-07-29T06:59:06;25.50;22.10
7341;DHT22;6870;50.944;6.932;2022-07-29T07:01:36;25.70;22.10
7341;DHT22;6870;50.944;6.932;2022-07-29T07:04:05;25.70;21.60
7341;DHT22;6870;50.944;6.932;2022-07-29T07:06:33;25.40;21.20
7341;DHT22;6870;50.944;6.932;2022-07-29T07:09:03;25.50;21.40
7341;DHT22;6870;50.944;6.932;2022-07-29T07:11:31;25.10;21.50
7341;DHT22;6870;50.944;6.932;2022-07-29T07:13:59;25.60;21.70
7341;DHT22;6870;50.944;6.932;2022-07-29T07:16:30;25.50;21.80
7341;DHT22;6870;50.944;6.932;2022-07-29T07:18:59;25.50;22.00
7341;DHT22;6870;50.944;6.932;2022-07-29T07:21:27;25.70;22.20
7341;DHT22;6870;50.944;6.932;2022-07-29T07:23:57;25.50;22.00
7341;DHT22;6870;50.944;6.932;2022-07-29T07:26:27;25.60;21.90
7341;DHT22;6870;50.944;6.932;2022-07-29T07:28:55;25.60;22.00
7341;DHT22;6870;50.944;6.932;2022-07-29T07:31:23;25.60;22.70
7341;DHT22;6870;50.944;6.932;2022-07-29T07:33:51;25.50;23.00
7341;DHT22;6870;50.944;6.932;2022-07-29T07:36:20;25.50;23.00
7341;DHT22;6870;50.944;6.932;2022-07-29T07:38:49;25.30;24.80
7341;DHT22;6870;50.944;6.932;2022-07-29T07:41:17;25.00;25.00
7341;DHT22;6870;50.944;6.932;2022-07-29T07:47:47;25.10;24.00
7341;DHT22;6870;50.944;6.932;2022-07-29T07:50:15;25.10;24.10
7341;DHT22;6870;50.944;6.932;2022-07-29T07:52:50;25.10;24.00
7341;DHT22;6870;50.944;6.932;2022-07-29T07:55:19;25.20;24.10
7341;DHT22;6870;50.944;6.932;2022-07-29T07:57:47;25.10;24.00
7341;DHT22;6870;50.944;6.932;2022-07-29T08:00:16;25.20;24.20
7341;DHT22;6870;50.944;6.932;2022-07-29T08:02:50;25.40;23.90
7341;DHT22;6870;50.944;6.932;2022-07-29T08:05:18;25.50;24.10
7341;DHT22;6870;50.944;6.932;2022-07-29T08:07:47;25.20;24.90
7341;DHT22;6870;50.944;6.932;2022-07-29T08:10:16;24.90;25.40
7341;DHT22;6870;50.944;6.932;2022-07-29T08:13:06;24.20;26.50
7341;DHT22;6870;50.944;6.932;2022-07-29T08:15:35;24.20;26.90
7341;DHT22;6870;50.944;6.932;2022-07-29T08:18:05;24.30;27.80
7341;DHT22;6870;50.944;6.932;2022-07-29T08:20:35;24.20;28.20
7341;DHT22;6870;50.944;6.932;2022-07-29T08:23:05;24.30;28.30
7341;DHT22;6870;50.944;6.932;2022-07-29T08:25:35;23.80;28.50
7341;DHT22;6870;50.944;6.932;2022-07-29T08:28:06;24.20;28.20
7341;DHT22;6870;50.944;6.932;2022-07-29T08:30:34;24.20;27.80
7341;DHT22;6870;50.944;6.932;2022-07-29T08:33:04;24.60;27.30
7341;DHT22;6870;50.944;6.932;2022-07-29T08:35:32;24.40;27.30
7341;DHT22;6870;50.944;6.932;2022-07-29T08:38:02;24.10;27.60
7341;DHT22;6870;50.944;6.932;2022-07-29T08:40:31;24.50;28.40
7341;DHT22;6870;50.944;6.932;2022-07-29T08:43:04;24.20;28.80
7341;DHT22;6870;50.944;6.932;2022-07-29T08:45:41;24.00;29.30
7341;DHT22;6870;50.944;6.932;2022-07-29T08:48:18;23.80;28.90
7341;DHT22;6870;50.944;6.932;2022-07-29T08:50:47;24.00;29.60
7341;DHT22;6870;50.944;6.932;2022-07-29T08:53:17;24.20;29.60
7341;DHT22;6870;50.944;6.932;2022-07-29T08:55:48;24.10;28.50
7341;DHT22;6870;50.944;6.932;2022-07-29T08:58:17;24.10;28.40
7341;DHT22;6870;50.944;6.932;2022-07-29T09:00:52;24.40;28.20
7341;DHT22;6870;50.944;6.932;2022-07-29T09:03:25;24.50;28.00
7341;DHT22;6870;50.944;6.932;2022-07-29T09:05:58;24.30;27.70
7341;DHT22;6870;50.944;6.932;2022-07-29T09:08:27;24.40;27.80
7341;DHT22;6870;50.944;6.932;2022-07-29T09:10:56;24.10;27.50
7341;DHT22;6870;50.944;6.932;2022-07-29T09:13:26;24.30;27.60
7341;DHT22;6870;50.944;6.932;2022-07-29T09:15:54;24.30;27.20
7341;DHT22;6870;50.944;6.932;2022-07-29T09:18:35;24.40;27.20
7341;DHT22;6870;50.944;6.932;2022-07-29T09:21:06;24.40;27.60
7341;DHT22;6870;50.944;6.932;2022-07-29T09:24:07;24.30;27.50
7341;DHT22;6870;50.944;6.932;2022-07-29T09:26:38;24.50;27.70
7341;DHT22;6870;50.944;6.932;2022-07-29T09:29:09;24.70;28.00
7341;DHT22;6870;50.944;6.932;2022-07-29T09:31:39;24.40;27.70
7341;DHT22;6870;50.944;6.932;2022-07-29T09:34:12;24.40;27.70
7341;DHT22;6870;50.944;6.932;2022-07-29T09:36:43;24.90;27.70
7341;DHT22;6870;50.944;6.932;2022-07-29T09:39:13;25.00;27.50
7341;DHT22;6870;50.944;6.932;2022-07-29T09:41:45;24.70;27.20
7341;DHT22;6870;50.944;6.932;2022-07-29T09:44:14;24.80;27.60
7341;DHT22;6870;50.944;6.932;2022-07-29T09:46:57;24.90;27.70
7341;DHT22;6870;50.944;6.932;2022-07-29T09:49:35;24.80;27.80
7341;DHT22;6870;50.944;6.932;2022-07-29T09:52:07;25.00;27.40
7341;DHT22;6870;50.944;6.932;2022-07-29T09:54:37;25.30;27.40
7341;DHT22;6870;50.944;6.932;2022-07-29T09:57:06;25.00;27.30
7341;DHT22;6870;50.944;6.932;2022-07-29T09:59:39;25.10;26.60
7341;DHT22;6870;50.944;6.932;2022-07-29T10:02:28;25.20;26.30
7341;DHT22;6870;50.944;6.932;2022-07-29T10:05:00;25.00;26.40
7341;DHT22;6870;50.944;6.932;2022-07-29T10:07:43;25.40;25.90
7341;DHT22;6870;50.944;6.932;2022-07-29T10:10:20;25.00;25.80
7341;DHT22;6870;50.944;6.932;2022-07-29T10:12:51;25.20;25.60
7341;DHT22;6870;50.944;6.932;2022-07-29T10:15:22;25.10;25.30
7341;DHT22;6870;50.944;6.932;2022-07-29T10:17:52;25.20;25.10
7341;DHT22;6870;50.944;6.932;2022-07-29T10:20:23;25.50;25.30
7341;DHT22;6870;50.944;6.932;2022-07-29T10:22:53;25.60;25.30
7341;DHT22;6870;50.944;6.932;2022-07-29T10:25:23;25.10;25.00
7341;DHT22;6870;50.944;6.932;2022-07-29T10:27:53;25.00;25.00
7341;DHT22;6870;50.944;6.932;2022-07-29T10:30:23;25.00;25.00
7341;DHT22;6870;50.944;6.932;2022-07-29T10:33:14;25.00;25.00
7341;DHT22;6870;50.944;6.932;2022-07-29T10:36:13;25.30;25.10
7341;DHT22;6870;50.944;6.932;2022-07-29T10:38:57;25.70;25.40
7341;DHT22;6870;50.944;6.932;2022-07-29T10:41:59;25.30;25.10
7341;DHT22;6870;50.944;6.932;2022-07-29T10:44:35;25.90;25.40
7341;DHT22;6870;50.944;6.932;2022-07-29T10:47:07;25.90;24.80
7341;DHT22;6870;50.944;6.932;2022-07-29T10:49:36;26.20;24.50
7341;DHT22;6870;50.944;6.932;2022-07-29T10:52:08;26.00;23.90
7341;DHT22;6870;50.944;6.932;2022-07-29T10:54:42;25.90;24.00
7341;DHT22;6870;50.944;6.932;2022-07-29T10:57:16;26.40;24.30
7341;DHT22;6870;50.944;6.932;2022-07-29T10:59:47;25.80;23.70
7341;DHT22;6870;50.944;6.932;2022-07-29T11:02:43;26.10;23.70
7341;DHT22;6870;50.944;6.932;2022-07-29T11:05:54;26.30;23.50
7341;DHT22;6870;50.944;6.932;2022-07-29T11:08:27;26.60;23.10
7341;DHT22;6870;50.944;6.932;2022-07-29T11:11:31;26.50;22.50
7341;DHT22;6870;50.944;6.932;2022-07-29T11:14:00;26.90;22.20
7341;DHT22;6870;50.944;6.932;2022-07-29T11:16:58;27.00;22.00
7341;DHT22;6870;50.944;6.932;2022-07-29T11:19:33;26.70;21.40
7341;DHT22;6870;50.944;6.932;2022-07-29T11:22:08;26.60;21.30
7341;DHT22;6870;50.944;6.932;2022-07-29T11:24:43;27.10;21.20
7341;DHT22;6870;50.944;6.932;2022-07-29T11:27:18;27.00;20.80
7341;DHT22;6870;50.944;6.932;2022-07-29T11:29:51;27.00;20.80
7341;DHT22;6870;50.944;6.932;2022-07-29T11:32:42;27.20;20.60
7341;DHT22;6870;50.944;6.932;2022-07-29T11:35:16;27.40;20.40
7341;DHT22;6870;50.944;6.932;2022-07-29T11:38:25;27.20;20.10
7341;DHT22;6870;50.944;6.932;2022-07-29T11:41:26;27.40;19.80
7341;DHT22;6870;50.944;6.932;2022-07-29T11:43:59;27.50;19.30
7341;DHT22;6870;50.944;6.932;2022-07-29T11:46:47;27.50;19.20
7341;DHT22;6870;50.944;6.932;2022-07-29T11:49:20;27.30;19.00
7341;DHT22;6870;50.944;6.932;2022-07-29T11:51:58;27.60;19.30
7341;DHT22;6870;50.944;6.932;2022-07-29T11:54:32;27.40;19.20
7341;DHT22;6870;50.944;6.932;2022-07-29T11:57:22;27.60;19.20
7341;DHT22;6870;50.944;6.932;2022-07-29T12:00:04;27.60;18.90
7341;DHT22;6870;50.944;6.932;2022-07-29T12:02:39;27.70;19.10
7341;DHT22;6870;50.944;6.932;2022-07-29T12:05:10;28.10;19.00
7341;DHT22;6870;50.944;6.932;2022-07-29T12:07:40;27.90;18.40
7341;DHT22;6870;50.944;6.932;2022-07-29T12:10:13;28.30;18.00
7341;DHT22;6870;50.944;6.932;2022-07-29T12:12:52;28.30;18.40
7341;DHT22;6870;50.944;6.932;2022-07-29T12:15:21;27.90;18.10
7341;DHT22;6870;50.944;6.932;2022-07-29T12:18:14;27.50;18.50
7341;DHT22;6870;50.944;6.932;2022-07-29T12:20:44;28.20;18.60
7341;DHT22;6870;50.944;6.932;2022-07-29T12:23:14;27.80;18.40
7341;DHT22;6870;50.944;6.932;2022-07-29T12:25:44;27.60;18.40
7341;DHT22;6870;50.944;6.932;2022-07-29T12:28:17;27.60;18.50
7341;DHT22;6870;50.944;6.932;2022-07-29T12:30:53;27.50;17.80
7341;DHT22;6870;50.944;6.932;2022-07-29T12:33:23;27.80;18.00
7341;DHT22;6870;50.944;6.932;2022-07-29T12:35:54;28.20;18.20
7341;DHT22;6870;50.944;6.932;2022-07-29T12:38:33;28.20;17.90
7341;DHT22;6870;50.944;6.932;2022-07-29T12:41:03;28.20;17.80
7341;DHT22;6870;50.944;6.932;2022-07-29T12:43:32;28.10;17.50
7341;DHT22;6870;50.944;6.932;2022-07-29T12:46:12;27.70;17.00
7341;DHT22;6870;50.944;6.932;2022-07-29T12:48:42;28.40;16.30
7341;DHT22;6870;50.944;6.932;2022-07-29T12:51:11;28.40;16.30
7341;DHT22;6870;50.944;6.932;2022-07-29T12:53:41;28.00;16.00
7341;DHT22;6870;50.944;6.932;2022-07-29T12:56:15;28.30;16.20
7341;DHT22;6870;50.944;6.932;2022-07-29T12:59:14;28.40;16.30
7341;DHT22;6870;50.944;6.932;2022-07-29T13:01:43;27.90;16.00
7341;DHT22;6870;50.944;6.932;2022-07-29T13:04:24;28.60;16.40
7341;DHT22;6870;50.944;6.932;2022-07-29T13:06:58;27.90;16.00
7341;DHT22;6870;50.944;6.932;2022-07-29T13:09:37;28.40;16.30
7341;DHT22;6870;50.944;6.932;2022-07-29T13:12:08;28.40;16.30
7341;DHT22;6870;50.944;6.932;2022-07-29T13:14:40;28.50;16.30
7341;DHT22;6870;50.944;6.932;2022-07-29T13:17:11;28.30;15.60
7341;DHT22;6870;50.944;6.932;2022-07-29T13:19:41;28.80;16.50
7341;DHT22;6870;50.944;6.932;2022-07-29T13:22:12;28.70;15.60
7341;DHT22;6870;50.944;6.932;2022-07-29T13:24:48;28.60;15.40
7341;DHT22;6870;50.944;6.932;2022-07-29T13:27:19;28.50;15.80
7341;DHT22;6870;50.944;6.932;2022-07-29T13:29:50;28.70;15.00
7341;DHT22;6870;50.944;6.932;2022-07-29T13:32:19;29.10;15.20
7341;DHT22;6870;50.944;6.932;2022-07-29T13:34:54;28.50;14.90
7341;DHT22;6870;50.944;6.932;2022-07-29T13:37:22;28.80;15.20
7341;DHT22;6870;50.944;6.932;2022-07-29T13:39:51;28.70;16.10
7341;DHT22;6870;50.944;6.932;2022-07-29T13:42:21;28.50;16.30
7341;DHT22;6870;50.944;6.932;2022-07-29T13:44:51;28.50;16.30
7341;DHT22;6870;50.944;6.932;2022-07-29T13:47:19;28.50;16.30
7341;DHT22;6870;50.944;6.932;2022-07-29T13:49:58;28.80;16.20
7341;DHT22;6870;50.944;6.932;2022-07-29T13:52:27;29.00;16.40
7341;DHT22;6870;50.944;6.932;2022-07-29T13:54:55;28.90;15.90
7341;DHT22;6870;50.944;6.932;2022-07-29T13:57:23;28.80;16.40
7341;DHT22;6870;50.944;6.932;2022-07-29T13:59:53;28.60;16.40
7341;DHT22;6870;50.944;6.932;2022-07-29T14:02:21;28.40;16.30
7341;DHT22;6870;50.944;6.932;2022-07-29T14:04:52;28.50;16.30
7341;DHT22;6870;50.944;6.932;2022-07-29T14:07:21;28.40;16.30
7341;DHT22;6870;50.944;6.932;2022-07-29T14:09:50;28.00;16.10
7341;DHT22;6870;50.944;6.932;2022-07-29T14:12:18;28.40;16.30
7341;DHT22;6870;50.944;6.932;2022-07-29T14:14:46;28.40;16.90
7341;DHT22;6870;50.944;6.932;2022-07-29T14:17:16;28.30;16.40
7341;DHT22;6870;50.944;6.932;2022-07-29T14:19:44;27.90;16.40
7341;DHT22;6870;50.944;6.932;2022-07-29T14:22:12;27.90;16.60
7341;DHT22;6870;50.944;6.932;2022-07-29T14:24:41;28.20;17.10
7341;DHT22;6870;50.944;6.932;2022-07-29T14:27:10;28.10;17.10
7341;DHT22;6870;50.944;6.932;2022-07-29T14:29:38;28.10;17.10
7341;DHT22;6870;50.944;6.932;2022-07-29T14:32:06;27.90;17.10
7341;DHT22;6870;50.944;6.932;2022-07-29T14:34:37;27.90;17.10
7341;DHT22;6870;50.944;6.932;2022-07-29T14:37:06;27.70;17.10
7341;DHT22;6870;50.944;6.932;2022-07-29T14:39:35;28.10;17.50
7341;DHT22;6870;50.944;6.932;2022-07-29T14:42:09;28.20;17.50
7341;DHT22;6870;50.944;6.932;2022-07-29T14:44:39;28.00;17.30
7341;DHT22;6870;50.944;6.932;2022-07-29T14:47:08;28.10;17.40
7341;DHT22;6870;50.944;6.932;2022-07-29T14:49:38;28.10;17.40
7341;DHT22;6870;50.944;6.932;2022-07-29T14:52:06;28.00;17.20
7341;DHT22;6870;50.944;6.932;2022-07-29T14:54:34;27.80;17.30
7341;DHT22;6870;50.944;6.932;2022-07-29T14:57:02;28.00;17.40
7341;DHT22;6870;50.944;6.932;2022-07-29T14:59:30;28.20;17.30
7341;DHT22;6870;50.944;6.932;2022-07-29T15:01:58;28.20;17.30
7341;DHT22;6870;50.944;6.932;2022-07-29T15:04:28;28.20;17.20
7341;DHT22;6870;50.944;6.932;2022-07-29T15:06:58;28.00;17.20
7341;DHT22;6870;50.944;6.932;2022-07-29T15:09:26;28.20;17.20
7341;DHT22;6870;50.944;6.932;2022-07-29T15:11:55;27.80;17.20
7341;DHT22;6870;50.944;6.932;2022-07-29T15:14:24;28.10;17.50
7341;DHT22;6870;50.944;6.932;2022-07-29T15:16:56;28.10;17.50
7341;DHT22;6870;50.944;6.932;2022-07-29T15:19:24;27.90;17.50
7341;DHT22;6870;50.944;6.932;2022-07-29T15:21:53;28.00;18.20
7341;DHT22;6870;50.944;6.932;2022-07-29T15:24:27;28.00;17.90
7341;DHT22;6870;50.944;6.932;2022-07-29T15:26:55;27.80;17.70
7341;DHT22;6870;50.944;6.932;2022-07-29T15:29:24;27.90;18.00
7341;DHT22;6870;50.944;6.932;2022-07-29T15:31:52;27.90;18.00
7341;DHT22;6870;50.944;6.932;2022-07-29T15:34:21;28.00;17.90
7341;DHT22;6870;50.944;6.932;2022-07-29T15:36:50;27.60;17.80
7341;DHT22;6870;50.944;6.932;2022-07-29T15:39:20;27.80;17.50
7341;DHT22;6870;50.944;6.932;2022-07-29T15:41:50;28.00;17.70
7341;DHT22;6870;50.944;6.932;2022-07-29T15:44:19;27.50;17.50
7341;DHT22;6870;50.944;6.932;2022-07-29T15:46:48;28.00;17.60
7341;DHT22;6870;50.944;6.932;2022-07-29T15:49:34;28.00;17.70
7341;DHT22;6870;50.944;6.932;2022-07-29T15:52:16;27.50;17.30
7341;DHT22;6870;50.944;6.932;2022-07-29T15:54:53;27.80;17.70
7341;DHT22;6870;50.944;6.932;2022-07-29T15:57:23;27.50;17.70
7341;DHT22;6870;50.944;6.932;2022-07-29T15:59:52;27.50;17.80
7341;DHT22;6870;50.944;6.932;2022-07-29T16:02:20;27.50;18.00
7341;DHT22;6870;50.944;6.932;2022-07-29T16:04:49;27.50;17.90
7341;DHT22;6870;50.944;6.932;2022-07-29T16:07:17;27.30;17.80
7341;DHT22;6870;50.944;6.932;2022-07-29T16:09:46;27.30;17.80
7341;DHT22;6870;50.944;6.932;2022-07-29T16:12:19;27.40;18.10
7341;DHT22;6870;50.944;6.932;2022-07-29T16:14:49;27.30;17.90
7341;DHT22;6870;50.944;6.932;2022-07-29T16:17:18;27.40;18.20
7341;DHT22;6870;50.944;6.932;2022-07-29T16:19:47;27.10;17.90
7341;DHT22;6870;50.944;6.932;2022-07-29T16:22:16;27.30;18.00
7341;DHT22;6870;50.944;6.932;2022-07-29T16:24:45;27.30;17.80
7341;DHT22;6870;50.944;6.932;2022-07-29T16:27:13;27.30;17.80
7341;DHT22;6870;50.944;6.932;2022-07-29T16:29:42;27.20;17.80
7341;DHT22;6870;50.944;6.932;2022-07-29T16:32:14;27.20;17.90
7341;DHT22;6870;50.944;6.932;2022-07-29T16:34:48;26.90;17.60
7341;DHT22;6870;50.944;6.932;2022-07-29T16:37:17;27.30;17.90